Time;durP1;ratioP1;P1;durP2;ratioP2;P2;SDS_P1;SDS_P2;PMS_P1;PMS_P2;Temp;Humidity;BMP_temperature;BMP_pressure;BME280_temperature;BME280_humidity;BME280_pressure;Samples;Min_cycle;Max_cycle;Signal;HPM_P1;HPM_P2
2022/03/28 00:01:33;;;;;;;4.72;2.00;;;23.20;37.50;;;;;;5027688;28;20033;-50
2022/03/28 00:03:58;;;;;;;3.20;1.75;;;23.20;38.10;;;;;;5027831;28;20036;-51
2022/03/28 00:06:24;;;;;;;4.13;1.70;;;23.20;37.60;;;;;;5027953;28;20030;-50
2022/03/28 00:08:50;;;;;;;3.75;1.98;;;23.20;37.50;;;;;;5028577;28;20037;-50
2022/03/28 00:11:17;;;;;;;3.28;1.70;;;23.20;37.60;;;;;;4994255;28;20061;-50
2022/03/28 00:13:44;;;;;;;3.15;1.73;;;23.20;37.60;;;;;;5028293;28;20025;-51
2022/03/28 00:16:10;;;;;;;3.35;1.77;;;23.20;37.70;;;;;;5028354;28;20034;-50
2022/03/28 00:18:35;;;;;;;2.92;1.67;;;23.20;37.60;;;;;;5009654;28;20261;-52
2022/03/28 00:21:01;;;;;;;2.95;1.58;;;23.20;37.60;;;;;;5027527;28;20031;-51
2022/03/28 00:23:27;;;;;;;2.92;1.55;;;23.20;37.50;;;;;;5027864;28;20025;-50
2022/03/28 00:25:53;;;;;;;3.67;1.83;;;23.20;37.50;;;;;;5026918;28;20709;-50
2022/03/28 00:28:19;;;;;;;3.08;1.58;;;23.20;37.50;;;;;;5027851;28;20666;-50
2022/03/28 00:30:45;;;;;;;3.47;1.63;;;23.20;37.40;;;;;;5027041;28;20033;-50
2022/03/28 00:33:11;;;;;;;2.47;1.30;;;23.20;37.50;;;;;;5027236;28;20725;-50
2022/03/28 00:35:37;;;;;;;2.90;1.45;;;23.20;37.50;;;;;;5026921;28;20499;-50
2022/03/28 00:38:05;;;;;;;3.13;1.85;;;23.20;37.50;;;;;;5027315;28;20025;-52
2022/03/28 00:40:32;;;;;;;3.50;1.60;;;23.20;37.50;;;;;;5008400;28;20045;-50
2022/03/28 00:43:06;;;;;;;2.90;1.33;;;23.20;37.50;;;;;;5027115;28;20037;-50
2022/03/28 00:45:34;;;;;;;3.75;1.90;;;23.20;37.50;;;;;;5026191;28;20044;-49
2022/03/28 00:48:01;;;;;;;3.00;1.50;;;23.20;37.40;;;;;;5026255;28;20017;-50
2022/03/28 00:50:29;;;;;;;3.35;1.60;;;23.10;37.50;;;;;;5007191;28;20029;-50
2022/03/28 00:52:56;;;;;;;3.15;1.63;;;23.10;37.60;;;;;;5008149;28;20083;-50
2022/03/28 00:55:21;;;;;;;2.67;1.63;;;23.10;37.50;;;;;;5009167;28;20044;-50
2022/03/28 00:57:47;;;;;;;3.58;1.45;;;23.10;37.50;;;;;;5026532;28;20026;-50
2022/03/28 01:00:14;;;;;;;2.40;1.35;;;23.10;37.50;;;;;;5026916;28;20582;-50
2022/03/28 01:02:40;;;;;;;2.45;1.33;;;23.10;37.60;;;;;;5008862;28;20647;-51
2022/03/28 01:05:06;;;;;;;2.55;1.30;;;23.10;37.50;;;;;;5026279;28;20035;-49
2022/03/28 01:07:32;;;;;;;2.15;1.25;;;23.10;37.50;;;;;;5026011;28;20038;-49
2022/03/28 01:10:01;;;;;;;3.03;1.45;;;23.10;37.40;;;;;;5026151;28;20148;-50
2022/03/28 01:12:31;;;;;;;2.85;1.42;;;23.10;37.40;;;;;;5026353;28;20049;-50
2022/03/28 01:14:57;;;;;;;2.97;1.48;;;23.10;37.40;;;;;;5026615;28;20112;-50
2022/03/28 01:20:09;;;;;;;2.33;1.42;;;23.10;37.40;;;;;;5025168;28;20124;-51
2022/03/28 01:22:36;;;;;;;2.42;1.30;;;23.10;37.40;;;;;;5011544;28;20025;-50
2022/03/28 01:25:06;;;;;;;2.72;1.30;;;23.00;37.30;;;;;;5026474;28;20048;-50
2022/03/28 01:27:36;;;;;;;2.17;1.15;;;23.00;37.20;;;;;;5026319;28;20477;-50
2022/03/28 01:30:04;;;;;;;3.40;1.60;;;23.00;37.20;;;;;;5008472;28;20049;-50
2022/03/28 01:32:30;;;;;;;2.38;1.27;;;23.00;37.20;;;;;;5026040;28;20646;-51
2022/03/28 01:34:56;;;;;;;2.55;1.38;;;23.00;37.30;;;;;;5026405;28;20038;-49
2022/03/28 01:37:22;;;;;;;2.78;1.50;;;23.00;37.30;;;;;;5026068;28;20036;-50
2022/03/28 01:39:49;;;;;;;2.08;1.20;;;23.00;37.30;;;;;;5026104;28;20033;-51
2022/03/28 01:42:15;;;;;;;2.20;1.20;;;23.00;37.30;;;;;;5026398;28;20056;-51
2022/03/28 01:44:41;;;;;;;2.92;1.52;;;23.00;37.30;;;;;;5007220;28;20032;-51
2022/03/28 01:47:07;;;;;;;2.50;1.17;;;23.00;37.30;;;;;;5025712;28;20026;-51
2022/03/28 01:49:33;;;;;;;2.75;1.40;;;23.00;37.30;;;;;;5025152;28;20042;-52
2022/03/28 01:51:59;;;;;;;2.83;1.48;;;23.00;37.20;;;;;;5025699;28;20033;-51
2022/03/28 01:54:24;;;;;;;2.70;1.50;;;23.00;37.20;;;;;;5025545;28;20060;-50
2022/03/28 01:56:50;;;;;;;2.95;1.40;;;23.00;37.20;;;;;;5025923;28;20032;-50
2022/03/28 01:59:16;;;;;;;2.63;1.10;;;23.00;37.20;;;;;;5025146;28;20079;-52
2022/03/28 02:01:42;;;;;;;2.72;1.40;;;22.90;37.20;;;;;;5024932;28;20057;-51
2022/03/28 02:04:08;;;;;;;2.72;1.45;;;23.00;37.10;;;;;;5025643;28;20034;-51
2022/03/28 02:06:34;;;;;;;2.00;0.98;;;22.90;37.10;;;;;;5025822;28;20885;-50
2022/03/28 02:09:00;;;;;;;3.67;1.48;;;23.00;37.10;;;;;;5025256;28;20037;-51
2022/03/28 02:11:26;;;;;;;2.08;1.15;;;23.00;37.10;;;;;;5025643;28;20044;-50
2022/03/28 02:13:52;;;;;;;2.50;1.20;;;22.90;37.10;;;;;;5025510;28;20033;-50
2022/03/28 02:16:17;;;;;;;3.00;1.50;;;22.90;37.10;;;;;;5025866;28;20047;-50
2022/03/28 02:18:44;;;;;;;2.85;1.40;;;22.90;37.20;;;;;;5025673;28;20068;-50
2022/03/28 02:21:09;;;;;;;2.35;1.20;;;22.90;37.20;;;;;;5025289;28;20048;-50
2022/03/28 02:23:36;;;;;;;2.33;1.10;;;22.90;37.10;;;;;;5025342;28;20025;-51
2022/03/28 02:26:02;;;;;;;3.03;1.42;;;22.90;37.20;;;;;;5025330;28;20129;-50
2022/03/28 02:28:29;;;;;;;2.92;1.40;;;22.90;37.20;;;;;;5024672;28;20108;-51
2022/03/28 02:30:55;;;;;;;2.30;1.08;;;22.90;37.20;;;;;;5025001;28;20048;-51
2022/03/28 02:33:21;;;;;;;2.30;1.10;;;22.90;37.10;;;;;;5025163;28;20057;-50
2022/03/28 02:35:47;;;;;;;2.50;1.10;;;22.90;37.10;;;;;;5025300;28;20029;-50
2022/03/28 02:38:13;;;;;;;2.10;1.10;;;22.90;37.10;;;;;;5007443;28;20056;-50
2022/03/28 02:40:38;;;;;;;2.75;1.00;;;22.90;37.10;;;;;;5024580;28;20116;-49
2022/03/28 02:43:04;;;;;;;2.63;1.38;;;22.80;37.00;;;;;;5023410;28;20017;-50
2022/03/28 02:45:33;;;;;;;2.33;1.17;;;22.90;37.00;;;;;;5024053;28;20036;-50
2022/03/28 02:47:59;;;;;;;2.70;1.15;;;22.80;36.90;;;;;;5006958;28;20480;-50
2022/03/28 02:50:30;;;;;;;2.40;1.20;;;22.80;37.10;;;;;;5006701;28;20116;-51
2022/03/28 02:52:56;;;;;;;2.30;1.05;;;22.80;37.00;;;;;;5024434;28;20034;-51
2022/03/28 02:55:22;;;;;;;2.28;1.08;;;22.80;36.90;;;;;;5024028;28;20481;-50
2022/03/28 02:57:47;;;;;;;2.35;1.00;;;22.80;36.90;;;;;;5024428;28;20057;-50
2022/03/28 03:00:14;;;;;;;1.88;0.93;;;22.80;36.90;;;;;;5023781;28;20112;-49
2022/03/28 03:02:42;;;;;;;1.88;1.08;;;22.80;36.90;;;;;;5024173;28;20029;-50
2022/03/28 03:05:09;;;;;;;2.67;1.15;;;22.80;36.90;;;;;;5024156;28;20049;-50
2022/03/28 03:07:35;;;;;;;1.83;0.93;;;22.80;37.00;;;;;;5024469;28;20043;-50
2022/03/28 03:10:02;;;;;;;1.70;1.00;;;22.80;36.90;;;;;;5023853;28;20478;-49
2022/03/28 03:12:28;;;;;;;2.45;1.20;;;22.80;37.00;;;;;;5024417;28;20022;-50
2022/03/28 03:14:53;;;;;;;2.38;1.20;;;22.80;37.00;;;;;;5023972;28;20037;-51
2022/03/28 03:17:20;;;;;;;2.60;1.25;;;22.80;37.00;;;;;;5023911;28;20053;-50
2022/03/28 03:19:46;;;;;;;2.47;1.25;;;22.80;36.90;;;;;;5023046;28;20036;-50
2022/03/28 03:22:16;;;;;;;2.30;1.10;;;22.80;36.90;;;;;;5024036;28;20038;-51
2022/03/28 03:24:46;;;;;;;1.85;0.98;;;22.80;36.90;;;;;;5023610;28;20224;-49
2022/03/28 03:27:12;;;;;;;1.77;1.00;;;22.80;36.90;;;;;;5022898;28;20605;-50
2022/03/28 03:29:38;;;;;;;2.70;1.10;;;22.80;36.80;;;;;;5023767;28;20044;-51
2022/03/28 03:32:05;;;;;;;2.22;1.15;;;22.80;36.80;;;;;;5024355;28;20041;-50
2022/03/28 03:34:32;;;;;;;2.90;1.08;;;22.80;36.80;;;;;;5023186;28;20510;-51
2022/03/28 03:36:58;;;;;;;2.08;1.00;;;22.70;36.80;;;;;;5023506;28;20137;-50
2022/03/28 03:39:25;;;;;;;2.20;1.05;;;22.80;36.80;;;;;;5023664;28;20770;-49
2022/03/28 03:41:55;;;;;;;1.92;1.02;;;22.80;36.80;;;;;;5024342;28;20026;-50
2022/03/28 03:44:21;;;;;;;3.20;1.30;;;22.70;36.70;;;;;;5023391;28;20029;-50
2022/03/28 03:46:47;;;;;;;2.72;0.93;;;22.70;36.70;;;;;;5023677;28;20100;-49
2022/03/28 03:49:13;;;;;;;2.22;1.20;;;22.70;36.70;;;;;;5023484;28;20493;-49
2022/03/28 03:51:39;;;;;;;2.70;1.17;;;22.70;36.70;;;;;;5024183;28;20039;-49
2022/03/28 03:54:05;;;;;;;2.08;0.95;;;22.80;36.80;;;;;;5024153;28;20707;-51
2022/03/28 03:56:31;;;;;;;2.35;1.25;;;22.70;36.80;;;;;;5024238;28;20029;-50
2022/03/28 03:58:58;;;;;;;2.50;1.05;;;22.70;36.70;;;;;;5023552;28;20064;-51
2022/03/28 04:01:26;;;;;;;1.88;0.90;;;22.70;36.80;;;;;;5023876;28;20028;-50
2022/03/28 04:03:52;;;;;;;2.33;1.20;;;22.70;36.70;;;;;;5024137;28;20032;-51
2022/03/28 04:06:18;;;;;;;2.25;1.05;;;22.70;36.70;;;;;;5006315;28;20191;-51
2022/03/28 04:08:44;;;;;;;2.45;1.15;;;22.70;36.70;;;;;;5024058;28;20520;-52
2022/03/28 04:11:10;;;;;;;2.47;1.10;;;22.70;36.70;;;;;;5023905;28;20065;-50
2022/03/28 04:13:36;;;;;;;1.92;1.00;;;22.70;36.70;;;;;;5023523;28;20025;-50
2022/03/28 04:16:03;;;;;;;2.28;1.00;;;22.70;36.80;;;;;;5023461;28;20029;-50
2022/03/28 04:18:29;;;;;;;2.42;1.33;;;22.70;36.80;;;;;;5022950;28;20029;-51
2022/03/28 04:20:55;;;;;;;1.83;0.90;;;22.70;37.00;;;;;;5024016;28;20159;-52
2022/03/28 04:23:22;;;;;;;2.45;1.20;;;22.70;37.00;;;;;;5023998;28;20053;-51
2022/03/28 04:25:49;;;;;;;1.90;0.90;;;22.70;37.10;;;;;;5026514;28;20067;-52
2022/03/28 04:28:14;;;;;;;2.22;0.98;;;22.80;37.10;;;;;;5027579;28;20029;-52
2022/03/28 04:30:40;;;;;;;1.70;0.90;;;22.70;37.20;;;;;;5027281;28;20041;-52
2022/03/28 04:33:09;;;;;;;2.17;1.05;;;22.80;37.20;;;;;;5027462;28;20321;-51
2022/03/28 04:35:39;;;;;;;2.33;1.00;;;22.80;37.20;;;;;;5027247;28;20104;-51
2022/03/28 04:38:06;;;;;;;2.08;0.90;;;22.80;37.10;;;;;;5009589;28;20025;-52
2022/03/28 04:40:35;;;;;;;2.63;1.27;;;22.90;37.10;;;;;;5027082;28;20029;-52
2022/03/28 04:43:01;;;;;;;2.70;1.00;;;22.90;37.10;;;;;;5027089;28;20036;-51
2022/03/28 04:45:27;;;;;;;2.08;1.00;;;22.90;37.10;;;;;;5027092;28;20610;-50
2022/03/28 04:47:53;;;;;;;1.90;1.00;;;23.00;37.10;;;;;;5026917;28;20080;-50
2022/03/28 04:50:20;;;;;;;2.47;1.00;;;23.00;37.00;;;;;;5026904;28;20540;-51
2022/03/28 04:52:46;;;;;;;3.30;1.35;;;23.00;36.90;;;;;;5008938;28;20048;-50
2022/03/28 04:55:12;;;;;;;2.30;0.98;;;23.10;37.00;;;;;;5027084;28;20111;-50
2022/03/28 04:57:38;;;;;;;2.90;1.10;;;23.10;37.10;;;;;;5026789;28;20017;-50
2022/03/28 05:00:06;;;;;;;1.58;0.80;;;23.10;36.80;;;;;;5025673;28;20105;-52
2022/03/28 05:02:34;;;;;;;1.92;0.98;;;23.20;36.80;;;;;;5008131;28;20557;-51
2022/03/28 05:05:00;;;;;;;1.50;0.80;;;23.20;36.70;;;;;;5025745;28;20033;-51
2022/03/28 05:07:26;;;;;;;2.10;1.00;;;23.30;36.70;;;;;;5025156;28;20017;-52
2022/03/28 05:09:53;;;;;;;2.03;1.08;;;23.30;36.60;;;;;;5024788;28;20341;-50
2022/03/28 05:12:20;;;;;;;2.40;1.00;;;23.30;36.60;;;;;;5025072;28;20021;-49
2022/03/28 05:14:46;;;;;;;2.15;1.25;;;23.40;36.50;;;;;;5025756;28;20025;-49
2022/03/28 05:17:12;;;;;;;2.35;1.10;;;23.40;36.60;;;;;;5007972;28;20574;-51
2022/03/28 05:19:38;;;;;;;2.10;1.00;;;23.40;36.70;;;;;;5024431;28;20029;-53
2022/03/28 05:22:04;;;;;;;1.98;0.95;;;23.40;36.70;;;;;;5024633;28;20045;-50
2022/03/28 05:24:30;;;;;;;1.85;1.00;;;23.50;37.00;;;;;;5025193;28;20037;-51
2022/03/28 05:26:55;;;;;;;2.10;1.20;;;23.50;37.10;;;;;;5023463;28;20045;-48
2022/03/28 05:29:24;;;;;;;2.25;1.20;;;23.50;37.00;;;;;;5025294;28;20033;-48
2022/03/28 05:31:50;;;;;;;2.33;1.20;;;23.50;36.90;;;;;;5025267;28;20049;-50
2022/03/28 05:34:16;;;;;;;2.42;1.23;;;23.50;36.80;;;;;;5025059;28;20104;-50
2022/03/28 05:36:43;;;;;;;2.60;1.20;;;23.60;36.80;;;;;;5024253;28;20033;-50
2022/03/28 05:39:09;;;;;;;3.10;1.60;;;23.60;36.70;;;;;;5024895;28;20144;-48
2022/03/28 05:41:36;;;;;;;2.85;1.50;;;23.60;36.60;;;;;;5021412;28;20140;-51
2022/03/28 05:44:02;;;;;;;1.95;1.08;;;23.60;36.60;;;;;;5013543;28;20053;-49
2022/03/28 05:46:28;;;;;;;2.47;1.50;;;23.60;36.60;;;;;;5018439;28;20029;-51
2022/03/28 05:48:54;;;;;;;3.03;1.50;;;23.70;36.60;;;;;;5021727;28;20128;-49
2022/03/28 05:51:20;;;;;;;3.97;1.20;;;23.60;36.50;;;;;;5022054;28;20018;-50
2022/03/28 05:53:46;;;;;;;2.70;1.30;;;23.70;36.60;;;;;;5024717;28;20025;-48
2022/03/28 05:56:11;;;;;;;2.72;1.20;;;23.60;36.40;;;;;;5024766;28;20029;-49
2022/03/28 05:58:37;;;;;;;2.92;1.42;;;23.70;36.50;;;;;;5024257;28;20021;-50
2022/03/28 06:01:03;;;;;;;2.65;1.20;;;23.70;36.50;;;;;;5022957;28;20021;-49
2022/03/28 06:03:29;;;;;;;2.25;1.25;;;23.60;36.30;;;;;;5024625;28;20017;-48
2022/03/28 06:05:55;;;;;;;2.95;1.52;;;23.60;36.30;;;;;;5022886;28;20728;-48
2022/03/28 06:08:21;;;;;;;2.72;1.50;;;23.60;36.30;;;;;;5006850;28;20029;-48
2022/03/28 06:10:47;;;;;;;3.03;1.58;;;23.70;36.50;;;;;;5023758;28;20053;-48
2022/03/28 06:13:13;;;;;;;3.33;1.77;;;23.70;36.60;;;;;;5024006;28;20061;-47
2022/03/28 06:15:39;;;;;;;3.92;1.98;;;23.70;36.70;;;;;;5024057;28;20017;-47
2022/03/28 06:18:05;;;;;;;2.92;1.50;;;23.60;36.50;;;;;;5023634;28;20428;-48
2022/03/28 06:20:35;;;;;;;3.88;2.00;;;23.70;36.70;;;;;;5023453;28;20108;-48
2022/03/28 06:23:02;;;;;;;3.72;1.85;;;23.60;36.70;;;;;;5003498;28;20580;-48
2022/03/28 06:25:29;;;;;;;2.97;1.50;;;23.70;36.80;;;;;;5024066;28;20075;-49
2022/03/28 06:27:55;;;;;;;3.70;2.03;;;23.60;36.80;;;;;;5024404;28;20029;-47
2022/03/28 06:30:21;;;;;;;5.13;2.05;;;23.60;36.80;;;;;;5006499;28;20026;-49
2022/03/28 06:32:47;;;;;;;4.78;1.98;;;23.60;36.80;;;;;;5024432;28;20107;-49
2022/03/28 06:35:13;;;;;;;4.43;2.33;;;23.60;36.80;;;;;;5024107;28;20041;-48
2022/03/28 06:37:39;;;;;;;4.82;2.30;;;23.60;36.80;;;;;;5025175;28;20121;-48
2022/03/28 06:40:05;;;;;;;4.47;2.42;;;23.60;36.70;;;;;;5024540;28;20094;-49
2022/03/28 06:42:32;;;;;;;4.93;2.30;;;23.60;36.70;;;;;;5024595;28;20025;-48
2022/03/28 06:45:01;;;;;;;5.75;2.70;;;23.60;36.70;;;;;;5024645;28;20091;-49
2022/03/28 06:47:28;;;;;;;5.30;2.35;;;23.60;36.70;;;;;;5024763;28;20064;-48
2022/03/28 06:49:53;;;;;;;3.83;2.22;;;23.60;36.70;;;;;;5023675;28;20090;-49
2022/03/28 06:52:20;;;;;;;4.15;2.15;;;23.60;36.80;;;;;;5025031;28;20038;-49
2022/03/28 06:54:45;;;;;;;7.68;2.65;;;23.60;36.80;;;;;;5025370;28;20104;-49
2022/03/28 06:57:12;;;;;;;5.07;2.20;;;23.60;36.90;;;;;;5025072;28;20108;-49
2022/03/28 06:59:38;;;;;;;4.45;2.47;;;23.60;36.80;;;;;;5006725;28;20366;-48
2022/03/28 07:02:04;;;;;;;3.90;2.28;;;23.60;36.80;;;;;;5006993;28;20021;-48
2022/03/28 07:04:30;;;;;;;4.60;2.58;;;23.60;36.80;;;;;;5006658;28;20028;-48
2022/03/28 07:06:56;;;;;;;4.25;2.20;;;23.60;36.80;;;;;;5024630;28;20030;-48
2022/03/28 07:09:22;;;;;;;3.88;2.05;;;23.60;36.80;;;;;;5024547;28;20049;-48
2022/03/28 07:11:47;;;;;;;5.15;2.60;;;23.60;36.80;;;;;;5025154;28;20521;-47
2022/03/28 07:14:16;;;;;;;4.93;2.10;;;23.60;36.70;;;;;;5024488;28;20137;-48
2022/03/28 07:16:42;;;;;;;4.28;1.83;;;23.60;36.80;;;;;;5024590;28;20029;-48
2022/03/28 07:19:08;;;;;;;4.28;2.33;;;23.60;36.70;;;;;;5024025;28;20179;-49
2022/03/28 07:21:34;;;;;;;3.88;2.30;;;23.50;36.70;;;;;;5024587;28;20044;-48
2022/03/28 07:24:00;;;;;;;4.03;2.45;;;23.60;36.60;;;;;;5024605;28;20030;-49
2022/03/28 07:26:26;;;;;;;4.20;2.53;;;23.50;36.60;;;;;;5024565;28;20037;-48
2022/03/28 07:28:55;;;;;;;3.17;1.95;;;23.50;36.60;;;;;;5024534;28;20570;-49
2022/03/28 07:31:21;;;;;;;5.65;2.60;;;23.50;36.50;;;;;;5006205;28;20029;-49
2022/03/28 07:33:47;;;;;;;4.07;2.45;;;23.50;36.50;;;;;;5022820;28;20073;-49
2022/03/28 07:36:13;;;;;;;4.20;2.45;;;23.50;36.50;;;;;;5024432;28;20040;-49
2022/03/28 07:38:38;;;;;;;4.35;2.55;;;23.50;36.50;;;;;;5024668;28;20021;-48
2022/03/28 07:41:05;;;;;;;3.80;2.08;;;23.50;36.50;;;;;;5023839;28;20048;-48
2022/03/28 07:43:32;;;;;;;4.10;2.20;;;23.50;36.50;;;;;;5024218;28;20386;-48
2022/03/28 07:45:58;;;;;;;4.82;2.33;;;23.50;36.50;;;;;;5024398;28;20037;-48
2022/03/28 07:48:24;;;;;;;3.88;2.00;;;23.50;36.40;;;;;;5024784;28;20022;-49
2022/03/28 07:50:50;;;;;;;4.53;2.63;;;23.50;36.40;;;;;;5024079;28;20211;-49
2022/03/28 07:53:16;;;;;;;4.80;2.65;;;23.50;36.40;;;;;;5024211;28;20041;-49
2022/03/28 07:55:43;;;;;;;3.90;2.08;;;23.50;36.40;;;;;;5024675;28;20048;-49
2022/03/28 07:58:10;;;;;;;4.70;2.22;;;23.50;37.00;;;;;;5024198;28;20041;-48
2022/03/28 08:00:40;;;;;;;5.25;2.30;;;23.50;36.40;;;;;;5026023;28;20247;-49
2022/03/28 08:03:06;;;;;;;3.22;2.08;;;23.50;36.40;;;;;;5025759;28;20505;-50
2022/03/28 08:05:32;;;;;;;4.60;2.30;;;23.40;36.40;;;;;;5021033;28;20032;-49
2022/03/28 08:07:58;;;;;;;3.45;2.13;;;23.40;36.30;;;;;;5028130;28;20022;-51
2022/03/28 08:10:24;;;;;;;3.70;2.25;;;23.40;36.30;;;;;;5013050;28;20030;-48
2022/03/28 08:12:52;;;;;;;4.00;2.42;;;23.40;36.30;;;;;;5008014;28;20664;-49
2022/03/28 08:15:19;;;;;;;4.65;2.50;;;23.40;36.20;;;;;;5008309;28;20065;-49
2022/03/28 08:17:45;;;;;;;3.55;2.42;;;23.40;36.20;;;;;;5008411;28;20438;-49
2022/03/28 08:20:12;;;;;;;4.10;2.30;;;23.40;36.30;;;;;;5017220;28;20029;-49
2022/03/28 08:22:40;;;;;;;3.53;2.00;;;23.40;36.20;;;;;;5028124;28;20045;-48
2022/03/28 08:25:07;;;;;;;3.88;2.58;;;23.40;36.20;;;;;;5028085;28;20489;-49
2022/03/28 08:27:34;;;;;;;4.13;2.40;;;23.40;36.20;;;;;;5027786;28;20034;-48
2022/03/28 08:29:59;;;;;;;4.10;2.22;;;23.40;36.30;;;;;;5027203;28;20116;-49
2022/03/28 08:32:25;;;;;;;4.03;2.55;;;23.40;36.30;;;;;;5010314;28;20533;-48
2022/03/28 08:34:51;;;;;;;3.38;2.05;;;23.40;36.30;;;;;;5027769;28;20045;-49
2022/03/28 08:37:18;;;;;;;4.60;2.67;;;23.40;36.40;;;;;;5027307;28;20025;-47
2022/03/28 08:39:45;;;;;;;3.85;2.55;;;23.40;36.40;;;;;;5027658;28;20025;-50
2022/03/28 08:42:16;;;;;;;3.92;2.38;;;23.40;36.40;;;;;;5027631;28;20034;-49
2022/03/28 08:44:42;;;;;;;5.18;2.63;;;23.40;36.30;;;;;;5027397;28;20068;-48
2022/03/28 08:47:12;;;;;;;4.05;2.53;;;23.40;36.30;;;;;;5027347;28;20026;-48
2022/03/28 08:49:38;;;;;;;4.85;2.90;;;23.40;36.30;;;;;;5026990;28;20029;-47
2022/03/28 08:52:07;;;;;;;4.68;2.83;;;23.40;36.40;;;;;;5027268;28;20049;-50
2022/03/28 08:54:35;;;;;;;4.80;2.75;;;23.40;36.30;;;;;;5027312;28;20083;-48
2022/03/28 08:57:00;;;;;;;3.60;2.45;;;23.50;36.40;;;;;;5009629;28;20025;-48
2022/03/28 08:59:26;;;;;;;4.38;2.90;;;23.50;36.40;;;;;;5026713;28;20091;-48
2022/03/28 09:01:52;;;;;;;4.43;2.67;;;23.50;36.30;;;;;;5027383;28;20033;-50
2022/03/28 09:04:18;;;;;;;4.47;2.70;;;23.50;36.30;;;;;;5027331;28;20608;-47
2022/03/28 09:06:44;;;;;;;3.78;2.45;;;23.50;36.20;;;;;;5026991;28;20203;-48
2022/03/28 09:09:12;;;;;;;4.75;2.90;;;23.50;36.30;;;;;;5026920;28;20108;-49
2022/03/28 09:11:38;;;;;;;4.10;2.80;;;23.50;36.20;;;;;;5026008;28;20069;-48
2022/03/28 09:14:04;;;;;;;4.28;3.03;;;23.50;36.20;;;;;;5026981;28;20025;-49
2022/03/28 09:16:34;;;;;;;4.18;2.72;;;23.50;36.20;;;;;;5008997;28;20032;-49
2022/03/28 09:19:08;;;;;;;3.80;2.20;;;23.50;36.20;;;;;;5026109;28;20034;-48
2022/03/28 09:21:34;;;;;;;4.20;2.55;;;23.50;36.10;;;;;;4989544;28;20105;-49
2022/03/28 09:24:04;;;;;;;4.28;2.50;;;23.50;36.10;;;;;;5006683;28;20026;-47
2022/03/28 09:26:30;;;;;;;4.55;2.67;;;23.50;36.10;;;;;;5007027;28;20084;-48
2022/03/28 09:29:01;;;;;;;3.58;2.38;;;23.50;36.00;;;;;;5006898;28;20429;-49
2022/03/28 09:31:34;;;;;;;5.97;2.60;;;23.50;36.00;;;;;;5025084;28;20101;-49
2022/03/28 09:34:18;;;;;;;4.68;2.88;;;23.50;36.00;;;;;;5020469;28;20083;-49
2022/03/28 09:36:53;;;;;;;3.75;2.40;;;23.50;36.00;;;;;;5008870;28;20407;-48
2022/03/28 09:39:27;;;;;;;3.70;2.50;;;23.50;36.00;;;;;;4972108;28;20091;-47
2022/03/28 09:42:09;;;;;;;3.90;2.38;;;23.50;36.00;;;;;;5006407;28;20053;-49
2022/03/28 09:44:49;;;;;;;3.80;2.42;;;23.50;36.00;;;;;;5006779;28;20097;-47
2022/03/28 09:47:17;;;;;;;4.00;2.60;;;23.50;36.00;;;;;;4988603;28;20022;-49
2022/03/28 09:49:44;;;;;;;4.13;2.58;;;23.50;35.90;;;;;;5010186;28;20041;-48
2022/03/28 09:52:12;;;;;;;4.60;2.47;;;23.50;36.60;;;;;;5025797;28;20044;-48
2022/03/28 09:54:51;;;;;;;4.53;2.80;;;23.50;36.00;;;;;;5026127;28;20029;-47
2022/03/28 09:57:31;;;;;;;3.92;2.33;;;23.50;35.90;;;;;;5026415;28;20163;-48
2022/03/28 10:00:18;;;;;;;5.28;3.03;;;23.50;35.90;;;;;;5025175;28;20021;-48
2022/03/28 10:02:46;;;;;;;5.28;2.72;;;23.50;35.90;;;;;;5025724;28;20087;-49
2022/03/28 10:05:12;;;;;;;4.10;2.80;;;23.50;35.90;;;;;;5008121;28;20033;-49
2022/03/28 10:07:38;;;;;;;4.55;2.90;;;23.50;35.90;;;;;;5025709;28;20029;-49
2022/03/28 10:10:05;;;;;;;3.75;2.38;;;23.50;35.90;;;;;;5007803;28;20025;-49
2022/03/28 10:12:31;;;;;;;4.18;2.80;;;23.50;35.90;;;;;;5025812;28;20432;-49
2022/03/28 10:14:57;;;;;;;3.60;2.30;;;23.50;35.90;;;;;;5025840;28;20030;-49
2022/03/28 10:17:25;;;;;;;4.10;2.50;;;23.50;35.90;;;;;;5025835;28;20052;-49
2022/03/28 10:19:51;;;;;;;4.07;2.47;;;23.50;35.80;;;;;;5025328;28;20025;-49
2022/03/28 10:22:27;;;;;;;3.67;2.17;;;23.50;35.90;;;;;;5025386;28;20021;-49
2022/03/28 10:24:53;;;;;;;4.30;2.60;;;23.50;36.00;;;;;;5025540;28;20053;-48
2022/03/28 10:27:20;;;;;;;3.70;2.20;;;23.50;36.00;;;;;;5025587;28;20053;-49
2022/03/28 10:29:46;;;;;;;4.15;2.25;;;23.50;36.10;;;;;;5024989;28;20111;-49
2022/03/28 10:32:16;;;;;;;3.60;2.15;;;23.50;36.10;;;;;;5025471;28;20474;-50
2022/03/28 10:34:42;;;;;;;3.40;1.92;;;23.50;36.10;;;;;;5025350;28;20060;-50
2022/03/28 10:37:39;;;;;;;3.72;2.10;;;23.50;36.10;;;;;;5025770;28;20477;-49
2022/03/28 10:40:25;;;;;;;3.75;2.35;;;23.50;36.10;;;;;;5024915;28;20025;-49
2022/03/28 10:42:55;;;;;;;3.58;1.88;;;23.50;36.10;;;;;;5024954;28;20026;-49
2022/03/28 10:45:30;;;;;;;3.85;2.35;;;23.50;36.10;;;;;;5025669;28;20088;-49
2022/03/28 10:47:58;;;;;;;3.50;2.17;;;23.50;36.10;;;;;;5025569;28;20066;-49
2022/03/28 10:50:34;;;;;;;3.42;1.98;;;23.60;36.10;;;;;;5024584;28;20071;-48
2022/03/28 10:53:20;;;;;;;3.22;2.00;;;23.60;36.10;;;;;;5024847;28;20052;-49
2022/03/28 10:55:52;;;;;;;3.63;2.03;;;23.60;36.70;;;;;;5024834;28;20363;-48
2022/03/28 10:58:19;;;;;;;3.65;2.13;;;23.60;36.00;;;;;;5024713;28;20033;-48
2022/03/28 11:01:13;;;;;;;4.00;2.50;;;23.60;36.00;;;;;;5019286;28;20223;-48
2022/03/28 11:03:41;;;;;;;3.28;2.03;;;23.60;36.00;;;;;;5005054;28;20052;-47
2022/03/28 11:06:07;;;;;;;3.88;2.30;;;23.60;36.00;;;;;;5019234;28;20030;-48
2022/03/28 11:08:38;;;;;;;3.30;2.03;;;23.60;35.90;;;;;;5023945;28;20030;-49
2022/03/28 11:11:20;;;;;;;2.85;1.67;;;23.60;35.90;;;;;;5024048;28;20118;-49
2022/03/28 11:14:05;;;;;;;3.80;2.35;;;23.70;35.90;;;;;;5024657;28;20034;-48
2022/03/28 11:16:42;;;;;;;3.45;2.00;;;23.70;35.90;;;;;;5024380;28;20128;-49
2022/03/28 11:19:21;;;;;;;3.22;1.90;;;23.70;35.90;;;;;;5006568;28;20468;-48
2022/03/28 11:22:02;;;;;;;3.53;2.25;;;23.70;35.80;;;;;;5006637;28;20400;-48
2022/03/28 11:24:48;;;;;;;3.13;1.67;;;23.70;35.80;;;;;;5024526;28;20057;-48
2022/03/28 11:27:16;;;;;;;3.35;2.28;;;23.70;35.80;;;;;;5024655;28;20044;-47
2022/03/28 11:29:44;;;;;;;3.20;1.88;;;23.70;36.30;;;;;;5023992;28;20439;-47
2022/03/28 11:32:18;;;;;;;3.42;1.90;;;23.70;35.70;;;;;;5023566;28;20025;-49
2022/03/28 11:34:54;;;;;;;2.85;1.83;;;23.70;35.70;;;;;;5005532;28;20057;-49
2022/03/28 11:37:28;;;;;;;3.22;1.90;;;23.70;35.70;;;;;;5006075;28;20509;-47
2022/03/28 11:40:00;;;;;;;3.70;1.92;;;23.70;35.60;;;;;;5023622;28;20416;-49
2022/03/28 11:42:32;;;;;;;3.50;2.40;;;23.80;36.30;;;;;;5006366;28;20022;-47
2022/03/28 11:45:08;;;;;;;3.38;2.03;;;23.80;35.70;;;;;;5024701;28;20115;-48
2022/03/28 11:47:39;;;;;;;3.90;1.85;;;23.80;35.70;;;;;;5024340;28;20022;-49
2022/03/28 11:50:08;;;;;;;3.15;2.03;;;23.70;35.70;;;;;;5023547;28;20406;-48
2022/03/28 11:52:36;;;;;;;3.13;1.63;;;23.70;35.70;;;;;;5023975;28;20048;-48
2022/03/28 11:55:16;;;;;;;3.28;2.00;;;23.80;35.70;;;;;;5006372;28;20044;-48
2022/03/28 12:00:32;;;;;;;3.45;2.00;;;23.70;36.40;;;;;;5024169;28;20028;-49
2022/03/28 12:02:59;;;;;;;3.10;1.90;;;23.80;35.80;;;;;;5011125;28;20029;-48
2022/03/28 12:05:32;;;;;;;2.83;1.80;;;23.80;35.80;;;;;;5024223;28;20529;-49
2022/03/28 12:08:00;;;;;;;3.05;1.80;;;23.80;35.90;;;;;;5024020;28;20048;-48
2022/03/28 12:10:29;;;;;;;3.17;1.70;;;23.80;35.80;;;;;;5006498;28;20061;-48
2022/03/28 12:12:57;;;;;;;3.17;1.70;;;23.80;35.80;;;;;;5024055;28;20029;-48
2022/03/28 12:15:25;;;;;;;3.17;1.95;;;23.80;35.80;;;;;;5006603;28;20155;-47
2022/03/28 12:17:54;;;;;;;3.58;2.10;;;23.90;35.80;;;;;;5024403;28;20036;-49
2022/03/28 12:20:23;;;;;;;2.95;1.73;;;23.90;35.80;;;;;;5017534;28;20033;-48
2022/03/28 12:22:49;;;;;;;3.10;1.90;;;23.90;35.80;;;;;;5024105;28;20613;-47
2022/03/28 12:25:38;;;;;;;3.42;1.90;;;23.90;35.70;;;;;;5023757;28;20112;-48
2022/03/28 12:28:07;;;;;;;2.42;1.48;;;23.90;35.70;;;;;;5006023;28;20025;-48
2022/03/28 12:30:37;;;;;;;3.42;2.00;;;23.90;35.70;;;;;;5023622;28;20522;-49
2022/03/28 12:33:08;;;;;;;3.25;1.80;;;24.00;35.70;;;;;;5023617;28;20041;-50
2022/03/28 12:35:38;;;;;;;3.10;1.70;;;24.00;35.70;;;;;;5023986;28;20481;-49
2022/03/28 12:38:04;;;;;;;2.97;1.63;;;24.00;35.70;;;;;;5002581;28;20038;-48
2022/03/28 12:40:31;;;;;;;3.50;1.73;;;24.00;35.70;;;;;;5022455;28;20021;-49
2022/03/28 12:43:00;;;;;;;3.15;1.60;;;24.00;35.70;;;;;;5014300;28;20026;-48
2022/03/28 12:45:27;;;;;;;3.03;1.45;;;24.10;35.70;;;;;;5003457;28;20018;-48
2022/03/28 12:48:06;;;;;;;3.15;1.73;;;24.10;35.70;;;;;;5005976;28;20065;-48
2022/03/28 12:50:34;;;;;;;2.97;1.65;;;24.10;35.70;;;;;;5012890;28;20648;-49
2022/03/28 12:53:13;;;;;;;3.13;1.90;;;24.20;35.60;;;;;;5008381;28;20037;-49
2022/03/28 12:55:42;;;;;;;3.08;1.70;;;24.20;35.60;;;;;;5025592;28;20021;-48
2022/03/28 12:58:09;;;;;;;2.85;1.33;;;24.20;35.50;;;;;;5025784;28;20033;-48